Jeppesen Weather report generated on Mon Sep 24 09:58:01 UTC 2018

TAF METAR Weather Report For FQBR FQCH FQTT FQVL FQ
ICAOREPORT DATA
FQBR
TAF_FC
TAF FQBR 240400Z 2406/2512 32008KT 9999 FEW020
    BECMG 2412/2414 08014KT BECMG 2418/2420 09008KT
    BECMG 2500/2502 VRB03KT  BECMG 2506/2508 VRB03KT
    TX30/2413Z TN21/2503Z=
FQBR
METAR
FQBR 240900Z 17014KT 9999 SCT018 28/21 Q1018=
FQCH
TAF_FC
TAF FQCH 240400Z 2406/2506 32008KT 9999 SCT020
    BECMG 2410/2412 09010KT FEW025 BECMG 2500/2502 22010KT
    TX31/2413Z TN16/2503Z=
FQCH
METAR
METAR FQCH 241000Z 06008KT 5000 FU SCT015 28/14 Q1021=
FQTT
TAF_FC
TAF FQTT 240400Z 2406/2506 34008KT 9999 FEW020
    BECMG 2412/2414 08012KT  BECMG 2418/2420 14010KT
    TX36/2413Z TN22/2503Z=
FQTT
METAR
METAR FQTT 240900Z VRB06KT 7000 FEW020 33/16 Q1016 RMK HZ=
FQVL
TAF_FC
TAF FQVL 240400Z 2406/2506  34010KT 9999 FEW020
    BECMG 2412/2414 07012KT
    TX28/2413Z TN20/2503Z=
FQVL
METAR
METAR FQVL 240900Z 08008KT 9999 FEW020 28/20 Q1019=